Time;durP1;ratioP1;P1;durP2;ratioP2;P2;SDS_P1;SDS_P2;PMS_P1;PMS_P2;Temp;Humidity;BMP_temperature;BMP_pressure;BME280_temperature;BME280_humidity;BME280_pressure;Samples;Min_cycle;Max_cycle;Signal;HPM_P1;HPM_P2
2022/05/15 00:00:37;;;;;;;5.30;3.53;;;18.00;89.90;;;;;;5001616;28;20547;-89
2022/05/15 00:00:39;;;;;;;3.83;2.83;;;17.90;90.00;;;;;;5027435;28;20396;-89
2022/05/15 00:03:15;;;;;;;3.60;3.13;;;17.80;90.10;;;;;;5013741;28;20465;-89
2022/05/15 00:05:42;;;;;;;3.47;3.13;;;17.80;90.20;;;;;;4999632;28;20414;-89
2022/05/15 00:08:09;;;;;;;5.10;3.27;;;17.70;90.30;;;;;;4998541;28;20479;-89
2022/05/15 00:10:35;;;;;;;4.20;3.07;;;17.60;90.40;;;;;;5016523;28;20412;-89
2022/05/15 00:13:01;;;;;;;4.47;4.07;;;17.60;90.50;;;;;;4999634;28;20447;-91
2022/05/15 00:15:30;;;;;;;4.60;3.50;;;17.60;90.60;;;;;;4995990;28;20473;-92
2022/05/15 00:17:56;;;;;;;10.77;3.83;;;17.50;90.60;;;;;;4996300;28;20453;-89
2022/05/15 00:20:22;;;;;;;4.03;3.70;;;17.50;90.70;;;;;;4997545;28;20511;-88
2022/05/15 00:22:47;;;;;;;7.00;4.10;;;17.50;90.80;;;;;;4996352;28;20322;-89
2022/05/15 00:25:13;;;;;;;5.77;4.13;;;17.50;90.80;;;;;;4996494;28;20576;-91
2022/05/15 00:27:39;;;;;;;4.47;3.23;;;17.50;90.90;;;;;;4980897;28;20704;-91
2022/05/15 00:30:06;;;;;;;5.30;3.70;;;17.40;90.90;;;;;;4978565;28;20418;-89
2022/05/15 00:32:32;;;;;;;7.90;4.40;;;17.40;91.00;;;;;;4980486;28;20204;-91
2022/05/15 00:34:58;;;;;;;3.93;3.43;;;17.40;91.10;;;;;;4986520;28;20410;-89
2022/05/15 00:37:24;;;;;;;4.00;3.53;;;17.30;91.10;;;;;;4975172;28;20454;-89
2022/05/15 00:39:50;;;;;;;5.90;4.40;;;17.30;91.20;;;;;;4978174;28;20430;-88
2022/05/15 00:42:15;;;;;;;5.10;3.73;;;17.30;91.30;;;;;;4977143;28;20318;-89
2022/05/15 00:44:41;;;;;;;4.00;3.70;;;17.20;91.40;;;;;;4978386;28;20399;-88
2022/05/15 00:47:07;;;;;;;5.83;4.07;;;17.20;91.50;;;;;;4975553;28;20211;-91
2022/05/15 00:49:35;;;;;;;7.40;3.77;;;17.20;91.60;;;;;;4977591;28;20252;-91
2022/05/15 00:52:04;;;;;;;3.70;3.40;;;17.20;91.60;;;;;;4976953;28;20434;-92
2022/05/15 00:54:32;;;;;;;5.80;3.93;;;17.20;91.70;;;;;;4976724;28;20410;-92
2022/05/15 00:57:26;;;;;;;6.90;4.17;;;17.20;91.80;;;;;;4977344;28;20450;-90
2022/05/15 01:00:04;;;;;;;5.77;3.40;;;17.20;91.90;;;;;;4977625;28;20469;-91
2022/05/15 01:02:38;;;;;;;4.50;4.00;;;17.20;91.90;;;;;;4977533;28;20477;-91
2022/05/15 01:05:04;;;;;;;7.40;3.93;;;17.10;92.00;;;;;;4977709;28;20996;-92
2022/05/15 01:07:30;;;;;;;5.63;4.40;;;17.10;92.10;;;;;;4976710;28;20454;-89
2022/05/15 01:09:56;;;;;;;6.80;4.67;;;17.10;92.20;;;;;;4976274;28;20414;-91
2022/05/15 01:12:22;;;;;;;5.50;4.00;;;17.10;92.30;;;;;;4977666;28;20819;-91
2022/05/15 01:14:48;;;;;;;6.07;4.60;;;17.10;92.30;;;;;;4979171;28;20258;-88
2022/05/15 01:17:14;;;;;;;5.60;4.70;;;17.00;92.30;;;;;;4983873;28;20477;-88
2022/05/15 01:19:42;;;;;;;5.00;4.20;;;17.00;92.40;;;;;;4976402;28;20406;-91
2022/05/15 01:22:11;;;;;;;11.07;4.50;;;17.00;92.50;;;;;;4977691;28;20478;-92
2022/05/15 01:24:38;;;;;;;5.07;4.50;;;17.00;92.60;;;;;;4977408;28;20461;-91
2022/05/15 01:27:08;;;;;;;8.40;4.10;;;17.00;92.60;;;;;;4986339;28;20464;-91
2022/05/15 01:29:40;;;;;;;5.73;4.33;;;17.00;92.70;;;;;;4995264;28;20401;-89
2022/05/15 01:32:06;;;;;;;7.20;5.47;;;16.90;92.80;;;;;;4997600;28;20480;-88
2022/05/15 01:34:32;;;;;;;5.43;4.83;;;16.80;92.90;;;;;;4997457;28;20437;-88
2022/05/15 01:36:59;;;;;;;5.60;4.30;;;16.80;92.90;;;;;;4995633;28;20457;-88
2022/05/15 01:39:26;;;;;;;5.93;4.00;;;16.80;93.00;;;;;;4996950;28;20184;-88
2022/05/15 01:41:52;;;;;;;6.30;4.77;;;16.70;93.10;;;;;;4997373;28;20481;-92
2022/05/15 01:44:17;;;;;;;6.50;4.50;;;16.70;93.20;;;;;;4996374;28;20938;-90
2022/05/15 01:46:43;;;;;;;6.40;5.03;;;16.70;93.20;;;;;;4997674;28;20199;-89
2022/05/15 01:49:09;;;;;;;6.20;4.50;;;16.70;93.30;;;;;;4996494;28;20172;-90
2022/05/15 01:51:37;;;;;;;6.70;5.27;;;16.70;93.30;;;;;;4996855;28;20226;-88
2022/05/15 01:54:03;;;;;;;5.27;4.63;;;16.60;93.40;;;;;;4995379;28;20402;-91
2022/05/15 01:56:30;;;;;;;6.60;4.73;;;16.60;93.50;;;;;;4996143;28;20433;-89
2022/05/15 01:58:57;;;;;;;5.80;5.20;;;16.50;93.60;;;;;;4999121;28;20429;-91
2022/05/15 02:01:23;;;;;;;6.97;5.37;;;16.50;93.70;;;;;;4993648;28;20832;-92
2022/05/15 02:03:49;;;;;;;7.40;4.70;;;16.40;93.70;;;;;;4993718;28;20417;-91
2022/05/15 02:06:15;;;;;;;5.23;4.67;;;16.40;93.90;;;;;;4995172;28;20443;-92
2022/05/15 02:08:42;;;;;;;6.90;5.40;;;16.40;94.00;;;;;;4995331;28;20508;-90
2022/05/15 02:11:08;;;;;;;6.37;5.63;;;16.30;94.10;;;;;;4996467;28;20417;-91
2022/05/15 02:13:34;;;;;;;7.40;4.57;;;16.20;94.20;;;;;;4996492;28;20520;-89
2022/05/15 02:16:00;;;;;;;5.77;4.40;;;16.20;94.60;;;;;;4995093;28;20461;-92
2022/05/15 02:18:26;;;;;;;5.60;4.47;;;16.20;94.40;;;;;;4995009;28;20438;-89
2022/05/15 02:20:52;;;;;;;11.40;5.60;;;16.20;94.40;;;;;;4994745;28;20468;-92
2022/05/15 02:23:18;;;;;;;6.70;4.73;;;16.10;94.50;;;;;;4996356;28;20441;-88
2022/05/15 02:25:44;;;;;;;6.60;5.07;;;16.00;94.60;;;;;;4996401;28;20176;-92
2022/05/15 02:28:09;;;;;;;7.80;5.27;;;16.00;94.70;;;;;;4977962;28;20192;-89
2022/05/15 02:30:35;;;;;;;7.10;5.80;;;16.00;94.70;;;;;;4976846;28;20176;-91
2022/05/15 02:33:01;;;;;;;7.40;5.43;;;16.00;94.80;;;;;;4978696;28;20212;-92
2022/05/15 02:35:27;;;;;;;6.37;5.17;;;15.90;94.90;;;;;;4980491;28;20176;-91
2022/05/15 02:37:53;;;;;;;4.93;4.33;;;15.90;95.10;;;;;;4980313;28;20733;-89
2022/05/15 02:40:21;;;;;;;6.43;5.00;;;15.80;95.10;;;;;;4982000;28;20402;-91
2022/05/15 02:42:46;;;;;;;5.37;4.40;;;15.80;95.30;;;;;;4987049;28;20226;-91
2022/05/15 02:45:12;;;;;;;7.77;5.17;;;15.80;95.40;;;;;;4980920;28;20430;-89
2022/05/15 02:47:39;;;;;;;5.80;5.20;;;15.80;95.50;;;;;;4980242;28;20442;-91
2022/05/15 02:52:50;;;;;;;7.77;4.90;;;15.80;95.50;;;;;;4981179;28;20501;-89
2022/05/15 02:55:16;;;;;;;5.40;4.43;;;15.80;95.60;;;;;;4978719;28;20793;-88
2022/05/15 02:57:42;;;;;;;7.00;5.30;;;15.80;95.60;;;;;;4980241;28;20438;-91
2022/05/15 03:00:10;;;;;;;7.93;5.03;;;15.80;95.60;;;;;;4980232;28;20398;-91
2022/05/15 03:02:40;;;;;;;8.40;4.70;;;15.80;95.70;;;;;;4979338;28;20489;-89
2022/05/15 03:05:08;;;;;;;6.73;5.40;;;15.70;95.70;;;;;;4978803;28;20430;-88
2022/05/15 03:07:35;;;;;;;7.10;5.83;;;15.70;95.80;;;;;;4978815;28;20458;-90
2022/05/15 03:10:01;;;;;;;8.63;5.13;;;15.70;95.90;;;;;;4980369;28;20434;-90
2022/05/15 03:12:26;;;;;;;7.00;4.90;;;15.70;96.00;;;;;;4979534;28;20466;-92
2022/05/15 03:14:53;;;;;;;4.87;4.23;;;15.70;96.10;;;;;;4987792;28;20255;-91
2022/05/15 03:17:20;;;;;;;4.53;4.10;;;15.70;96.10;;;;;;4983192;28;20199;-88
2022/05/15 03:19:45;;;;;;;6.93;4.50;;;15.70;96.20;;;;;;4997339;28;20418;-89
2022/05/15 03:22:11;;;;;;;7.00;4.30;;;15.70;96.20;;;;;;4997500;28;20572;-88
2022/05/15 03:24:37;;;;;;;8.60;5.97;;;15.70;96.20;;;;;;4980974;28;20414;-90
2022/05/15 03:27:03;;;;;;;6.10;4.40;;;15.80;96.30;;;;;;4991770;28;20199;-89
2022/05/15 03:29:29;;;;;;;6.50;4.90;;;15.80;96.30;;;;;;5016939;28;20179;-91
2022/05/15 03:31:55;;;;;;;6.93;5.43;;;15.80;96.30;;;;;;4999751;28;20465;-92
2022/05/15 03:34:21;;;;;;;7.33;5.00;;;15.80;96.60;;;;;;5017681;28;20397;-91
2022/05/15 03:36:51;;;;;;;6.47;4.87;;;15.80;96.70;;;;;;5000887;28;20207;-89
2022/05/15 03:39:19;;;;;;;8.00;5.07;;;15.80;96.70;;;;;;5019137;28;20405;-92
2022/05/15 03:41:46;;;;;;;10.53;5.30;;;15.70;96.80;;;;;;5000514;28;20859;-89
2022/05/15 03:44:12;;;;;;;8.90;6.47;;;15.70;96.90;;;;;;5018635;28;20812;-89
2022/05/15 03:46:39;;;;;;;7.10;5.30;;;15.70;97.00;;;;;;5020083;28;20587;-91
2022/05/15 03:49:05;;;;;;;7.33;5.27;;;15.60;97.20;;;;;;5019247;28;20420;-89
2022/05/15 03:51:31;;;;;;;6.17;5.20;;;15.60;97.50;;;;;;5001945;28;20432;-91
2022/05/15 03:53:57;;;;;;;8.43;5.33;;;15.60;97.70;;;;;;5002501;28;20993;-91
2022/05/15 03:59:09;;;;;;;6.10;4.87;;;15.60;97.80;;;;;;5021077;28;20397;-91
2022/05/15 04:01:35;;;;;;;7.20;4.60;;;15.60;97.80;;;;;;5001682;28;20502;-89
2022/05/15 04:04:02;;;;;;;7.70;5.20;;;15.60;97.90;;;;;;5003167;28;20405;-91
2022/05/15 04:06:28;;;;;;;5.60;4.70;;;15.60;97.80;;;;;;5021811;28;20447;-89
2022/05/15 04:08:54;;;;;;;8.50;5.83;;;15.70;97.60;;;;;;4998292;28;20417;-90
2022/05/15 04:11:20;;;;;;;7.23;5.13;;;15.70;97.80;;;;;;4998532;28;20463;-89
2022/05/15 04:13:46;;;;;;;5.60;4.23;;;15.80;98.50;;;;;;5016120;28;20786;-91
2022/05/15 04:16:11;;;;;;;6.23;5.27;;;15.80;97.90;;;;;;4998421;28;20231;-92
2022/05/15 04:18:37;;;;;;;6.40;4.70;;;15.80;98.00;;;;;;5016029;28;20946;-89
2022/05/15 04:21:03;;;;;;;7.13;5.60;;;15.90;97.90;;;;;;5015871;28;20222;-92
2022/05/15 04:23:30;;;;;;;5.63;4.93;;;15.90;97.70;;;;;;4998807;28;20607;-92
2022/05/15 04:25:56;;;;;;;7.30;4.83;;;16.00;97.80;;;;;;4999358;28;20278;-92
2022/05/15 04:28:22;;;;;;;8.93;5.20;;;16.10;97.70;;;;;;4999211;28;20421;-92
2022/05/15 04:30:48;;;;;;;7.30;5.10;;;16.10;97.80;;;;;;4998881;28;21001;-90
2022/05/15 04:33:14;;;;;;;5.90;4.70;;;16.10;97.90;;;;;;4999545;28;20432;-92
2022/05/15 04:35:40;;;;;;;6.37;4.23;;;16.20;97.90;;;;;;4999253;28;20409;-91
2022/05/15 04:38:08;;;;;;;5.03;4.53;;;16.20;97.90;;;;;;4999459;28;20433;-92
2022/05/15 04:40:33;;;;;;;6.20;4.30;;;16.20;98.00;;;;;;5017305;28;20171;-88
2022/05/15 04:42:59;;;;;;;5.03;4.40;;;16.30;98.00;;;;;;5019867;28;21051;-90
2022/05/15 04:45:25;;;;;;;5.43;4.93;;;16.30;98.10;;;;;;5017824;28;20179;-88
2022/05/15 04:47:51;;;;;;;5.10;4.57;;;16.40;98.30;;;;;;5001135;28;20289;-89
2022/05/15 04:50:17;;;;;;;9.60;5.00;;;16.40;98.30;;;;;;5020136;28;20202;-91
2022/05/15 04:52:43;;;;;;;9.40;4.93;;;16.50;98.40;;;;;;5007862;28;20476;-88
2022/05/15 04:55:09;;;;;;;7.20;5.10;;;16.60;98.50;;;;;;4998097;28;20420;-90
2022/05/15 04:57:36;;;;;;;9.23;5.60;;;16.60;98.50;;;;;;4998456;28;21044;-92
2022/05/15 05:00:08;;;;;;;6.13;5.00;;;16.70;98.60;;;;;;5015562;28;20404;-91
2022/05/15 05:02:34;;;;;;;9.10;5.50;;;16.80;98.60;;;;;;4998967;28;20488;-89
2022/05/15 05:05:00;;;;;;;10.70;4.73;;;16.80;98.50;;;;;;4998200;28;20479;-92
2022/05/15 05:07:27;;;;;;;4.87;4.37;;;16.90;98.50;;;;;;4998430;28;20457;-89
2022/05/15 05:09:53;;;;;;;10.13;5.37;;;17.00;98.60;;;;;;5016605;28;20468;-92
2022/05/15 05:12:20;;;;;;;5.00;4.33;;;17.10;98.70;;;;;;4999001;28;20444;-89
2022/05/15 05:14:45;;;;;;;5.40;4.67;;;17.10;98.60;;;;;;5016662;28;20472;-89
2022/05/15 05:17:12;;;;;;;5.10;4.60;;;17.20;98.40;;;;;;4999225;28;20526;-92
2022/05/15 05:19:37;;;;;;;7.63;5.47;;;17.30;98.30;;;;;;4999194;28;20206;-89
2022/05/15 05:22:03;;;;;;;8.10;4.23;;;17.40;98.10;;;;;;5015570;28;20487;-88
2022/05/15 05:24:29;;;;;;;7.53;5.37;;;17.50;98.10;;;;;;4998770;28;20182;-91
2022/05/15 05:26:55;;;;;;;4.30;3.83;;;17.50;98.10;;;;;;5006528;28;20859;-89
2022/05/15 05:29:21;;;;;;;5.27;4.53;;;17.60;98.10;;;;;;4981105;28;20172;-91
2022/05/15 05:31:48;;;;;;;5.97;5.20;;;17.70;98.00;;;;;;4981095;28;20688;-91
2022/05/15 05:34:14;;;;;;;6.30;4.20;;;17.80;98.00;;;;;;4981974;28;20202;-89
2022/05/15 05:36:39;;;;;;;5.23;4.40;;;17.90;98.00;;;;;;4998093;28;20540;-88
2022/05/15 05:39:05;;;;;;;5.90;5.07;;;18.00;98.10;;;;;;4989302;28;20422;-91
2022/05/15 05:41:31;;;;;;;6.10;4.83;;;18.10;98.10;;;;;;4979805;28;20314;-89
2022/05/15 05:43:58;;;;;;;4.67;4.27;;;18.20;97.90;;;;;;4977580;28;20176;-88
2022/05/15 05:46:24;;;;;;;5.70;4.90;;;18.30;97.90;;;;;;4995253;28;20175;-93
2022/05/15 05:48:50;;;;;;;5.17;4.67;;;18.40;97.80;;;;;;4994934;28;20397;-92
2022/05/15 05:51:16;;;;;;;4.73;4.20;;;18.50;97.70;;;;;;4994913;28;20187;-91
2022/05/15 05:53:42;;;;;;;8.77;4.60;;;18.50;97.40;;;;;;4977992;28;20227;-89
2022/05/15 05:56:08;;;;;;;7.90;5.13;;;18.60;97.30;;;;;;4977840;28;20421;-89
2022/05/15 05:58:35;;;;;;;5.30;4.27;;;18.80;97.20;;;;;;4995216;28;20421;-89
2022/05/15 06:01:01;;;;;;;5.17;4.67;;;18.80;97.10;;;;;;4995682;28;20424;-88
2022/05/15 06:06:10;;;;;;;7.03;4.27;;;19.00;97.00;;;;;;5000912;28;20187;-90
2022/05/15 06:08:36;;;;;;;5.87;4.63;;;19.10;97.00;;;;;;4982933;28;20435;-91
2022/05/15 06:11:02;;;;;;;4.77;4.27;;;19.20;96.80;;;;;;4982757;28;20181;-89
2022/05/15 06:13:27;;;;;;;8.20;5.17;;;19.30;96.80;;;;;;4999966;28;20202;-89
2022/05/15 06:15:54;;;;;;;4.47;4.07;;;19.40;96.50;;;;;;5000775;28;20223;-93
2022/05/15 06:18:20;;;;;;;6.33;4.57;;;19.40;96.50;;;;;;5001735;28;20435;-89
2022/05/15 06:20:46;;;;;;;5.03;4.53;;;19.50;96.60;;;;;;4984308;28;20469;-92
2022/05/15 06:23:12;;;;;;;5.07;4.57;;;19.60;96.60;;;;;;4984268;28;20514;-89
2022/05/15 06:25:37;;;;;;;4.60;4.20;;;19.70;96.60;;;;;;4987686;28;20197;-88
2022/05/15 06:28:04;;;;;;;6.00;5.50;;;19.80;96.40;;;;;;4999993;28;20302;-90
2022/05/15 06:30:30;;;;;;;4.47;4.07;;;19.90;96.40;;;;;;5000836;28;20188;-92
2022/05/15 06:32:56;;;;;;;5.20;4.30;;;20.00;96.20;;;;;;5000782;28;20501;-92
2022/05/15 06:35:22;;;;;;;5.23;4.57;;;20.00;96.10;;;;;;5001242;28;20423;-89
2022/05/15 06:37:48;;;;;;;5.10;4.60;;;20.10;96.10;;;;;;5001132;28;20438;-89
2022/05/15 06:40:14;;;;;;;8.90;4.90;;;20.20;95.80;;;;;;5019471;28;20276;-91
2022/05/15 06:42:43;;;;;;;4.67;4.10;;;20.30;95.70;;;;;;5002011;28;20328;-89
2022/05/15 06:45:10;;;;;;;5.80;4.40;;;20.40;95.80;;;;;;5018627;28;20495;-90
2022/05/15 06:47:36;;;;;;;8.90;5.10;;;20.50;95.80;;;;;;5000965;28;20453;-89
2022/05/15 06:50:04;;;;;;;4.90;4.40;;;20.60;95.50;;;;;;5000685;28;20462;-88
2022/05/15 06:52:30;;;;;;;6.50;4.40;;;20.70;95.30;;;;;;5002214;28;20453;-89
2022/05/15 06:54:56;;;;;;;5.17;4.20;;;20.80;95.20;;;;;;5003559;28;20408;-91
2022/05/15 06:57:31;;;;;;;5.67;5.17;;;20.80;95.00;;;;;;5012387;28;20203;-90
2022/05/15 07:00:10;;;;;;;5.33;4.80;;;21.00;95.00;;;;;;5004691;28;20213;-89
2022/05/15 07:02:36;;;;;;;5.20;4.40;;;21.10;94.80;;;;;;5000113;28;20480;-89
2022/05/15 07:05:04;;;;;;;4.60;4.20;;;21.10;94.70;;;;;;4999951;28;20420;-89
2022/05/15 07:07:30;;;;;;;5.03;4.00;;;21.20;94.80;;;;;;5000681;28;20468;-89
2022/05/15 07:09:56;;;;;;;5.10;3.93;;;21.30;94.60;;;;;;5000466;28;20458;-89
2022/05/15 07:12:24;;;;;;;4.57;4.17;;;21.40;94.50;;;;;;5018412;28;20444;-92
2022/05/15 07:14:50;;;;;;;6.13;4.53;;;21.50;94.70;;;;;;5001458;28;20373;-90
2022/05/15 07:17:16;;;;;;;4.90;4.30;;;21.60;94.50;;;;;;5001671;28;20519;-92
2022/05/15 07:19:42;;;;;;;5.43;4.37;;;21.70;94.40;;;;;;5002689;28;20221;-89
2022/05/15 07:22:09;;;;;;;6.10;3.80;;;21.80;94.00;;;;;;5003056;28;20834;-89
2022/05/15 07:24:38;;;;;;;4.43;4.00;;;21.90;94.00;;;;;;5001367;28;20183;-89
2022/05/15 07:27:08;;;;;;;9.37;4.70;;;22.00;94.00;;;;;;4991420;28;20453;-88
2022/05/15 07:29:36;;;;;;;4.07;3.70;;;22.10;94.00;;;;;;4983007;28;20428;-92
2022/05/15 07:32:04;;;;;;;4.70;4.17;;;22.10;93.70;;;;;;4983108;28;20464;-92
2022/05/15 07:34:29;;;;;;;4.30;3.90;;;22.20;93.60;;;;;;4990294;28;20433;-89
2022/05/15 07:36:55;;;;;;;4.37;4.07;;;22.30;94.00;;;;;;5003100;28;20452;-91
2022/05/15 07:39:21;;;;;;;11.50;4.60;;;22.40;93.50;;;;;;5007818;28;20184;-91
2022/05/15 07:41:48;;;;;;;4.00;3.60;;;22.40;93.30;;;;;;4999382;28;20233;-92
2022/05/15 07:44:14;;;;;;;4.60;4.20;;;22.50;93.20;;;;;;4999663;28;20921;-92
2022/05/15 07:46:40;;;;;;;4.77;4.30;;;22.60;93.10;;;;;;5018000;28;20509;-89
2022/05/15 07:49:07;;;;;;;4.83;4.43;;;22.70;93.20;;;;;;5001179;28;20429;-91
2022/05/15 07:51:33;;;;;;;4.90;4.50;;;22.80;93.00;;;;;;5002272;28;20219;-92
2022/05/15 07:53:59;;;;;;;5.17;4.77;;;22.80;93.00;;;;;;5001505;28;20429;-89
2022/05/15 07:56:26;;;;;;;4.53;4.10;;;23.00;93.00;;;;;;5000870;28;20448;-90
2022/05/15 07:58:52;;;;;;;4.47;3.60;;;23.00;92.90;;;;;;5017942;28;20401;-89
2022/05/15 08:01:18;;;;;;;4.30;3.90;;;23.20;92.80;;;;;;5018580;28;20454;-92
2022/05/15 08:03:43;;;;;;;3.67;3.33;;;23.20;92.10;;;;;;5000235;28;20918;-92
2022/05/15 08:08:57;;;;;;;4.77;4.20;;;23.50;91.70;;;;;;5019835;28;20179;-92
2022/05/15 08:11:26;;;;;;;4.87;4.47;;;23.60;91.40;;;;;;5001144;28;20422;-92
2022/05/15 08:13:52;;;;;;;3.90;3.50;;;23.70;91.60;;;;;;5004100;28;20411;-88
2022/05/15 08:16:18;;;;;;;7.40;4.10;;;23.80;91.40;;;;;;5007098;28;20466;-89
2022/05/15 08:24:14;;;;;;;6.03;4.27;;;24.10;90.50;;;;;;5016880;28;20994;-92
2022/05/15 08:26:40;;;;;;;5.00;3.30;;;24.20;90.80;;;;;;4999280;28;20505;-90
2022/05/15 08:29:06;;;;;;;3.97;3.67;;;24.30;90.30;;;;;;4999105;28;20419;-91
2022/05/15 08:31:31;;;;;;;4.03;3.57;;;24.40;90.20;;;;;;5000477;28;20443;-89
2022/05/15 08:33:57;;;;;;;3.77;3.47;;;24.50;89.20;;;;;;4999001;28;20463;-91
2022/05/15 08:36:23;;;;;;;4.30;3.17;;;24.60;88.30;;;;;;5016869;28;20206;-91
2022/05/15 08:38:49;;;;;;;3.73;3.43;;;24.70;88.40;;;;;;5001456;28;20415;-90
2022/05/15 08:41:30;;;;;;;3.13;2.93;;;24.80;87.40;;;;;;5017782;28;20266;-90
2022/05/15 08:44:18;;;;;;;4.80;3.13;;;24.80;88.00;;;;;;5000577;28;20177;-93
2022/05/15 08:46:56;;;;;;;3.50;2.97;;;24.90;87.30;;;;;;5000414;28;20835;-89
2022/05/15 08:49:32;;;;;;;5.00;2.90;;;25.00;87.30;;;;;;5003418;28;20487;-90
2022/05/15 08:52:04;;;;;;;3.57;3.07;;;25.10;86.70;;;;;;4997819;28;20455;-89
2022/05/15 08:54:34;;;;;;;3.60;3.30;;;25.20;86.40;;;;;;4997442;28;20432;-88
2022/05/15 08:57:00;;;;;;;2.53;2.33;;;25.30;85.00;;;;;;4998653;28;20506;-92
2022/05/15 08:59:31;;;;;;;3.00;2.53;;;25.40;85.80;;;;;;5016692;28;20412;-88
2022/05/15 09:01:59;;;;;;;2.60;2.10;;;25.50;83.50;;;;;;5019170;28;20848;-93
2022/05/15 09:04:27;;;;;;;2.67;2.47;;;25.60;83.90;;;;;;5015782;28;21016;-92
2022/05/15 09:07:30;;;;;;;2.60;2.10;;;25.60;81.60;;;;;;5017292;28;20506;-90
2022/05/15 09:10:17;;;;;;;3.03;2.60;;;25.70;81.70;;;;;;4999818;28;20500;-90
2022/05/15 09:12:46;;;;;;;2.70;2.50;;;25.80;82.50;;;;;;5016844;28;20854;-90
2022/05/15 09:15:22;;;;;;;3.00;2.27;;;25.80;83.60;;;;;;5017553;28;20487;-90
2022/05/15 09:18:00;;;;;;;2.60;2.40;;;25.80;83.40;;;;;;5017581;28;20440;-93
2022/05/15 09:20:45;;;;;;;3.90;2.70;;;25.90;83.20;;;;;;5001185;28;20425;-90
2022/05/15 09:23:13;;;;;;;3.13;2.63;;;26.00;82.80;;;;;;5001618;28;20484;-90
2022/05/15 09:25:39;;;;;;;3.00;2.77;;;26.10;81.70;;;;;;4998029;28;20540;-91
2022/05/15 09:28:12;;;;;;;2.90;2.47;;;26.20;80.90;;;;;;4996973;28;20551;-90
2022/05/15 09:30:49;;;;;;;5.33;2.83;;;26.30;82.10;;;;;;5014643;28;20174;-90
2022/05/15 09:33:44;;;;;;;2.90;2.30;;;26.30;81.70;;;;;;4997285;28;20445;-91
2022/05/15 09:36:18;;;;;;;3.40;3.10;;;26.40;80.50;;;;;;4997388;28;20440;-93
2022/05/15 09:38:49;;;;;;;3.83;2.00;;;26.40;79.80;;;;;;4997591;28;20425;-93
2022/05/15 09:44:27;;;;;;;2.40;2.10;;;26.50;77.50;;;;;;5016883;28;21017;-93
2022/05/15 09:47:11;;;;;;;2.10;2.00;;;26.50;78.80;;;;;;5016478;28;20452;-90
2022/05/15 09:49:37;;;;;;;3.23;2.30;;;26.50;76.50;;;;;;4999355;28;20429;-93
2022/05/15 09:52:16;;;;;;;2.30;2.10;;;26.50;74.30;;;;;;5017881;28;21010;-93
2022/05/15 09:54:46;;;;;;;2.43;2.00;;;26.60;75.00;;;;;;5018695;28;20454;-93
2022/05/15 09:57:25;;;;;;;3.33;2.03;;;26.60;74.30;;;;;;5006714;28;20459;-90
2022/05/15 09:59:51;;;;;;;2.10;1.90;;;26.70;75.00;;;;;;5025928;28;20423;-93
2022/05/15 10:02:20;;;;;;;8.60;2.07;;;26.70;74.30;;;;;;4996999;28;20499;-93
2022/05/15 10:04:49;;;;;;;1.97;1.83;;;26.70;74.50;;;;;;4997323;28;20182;-90
2022/05/15 10:07:34;;;;;;;2.60;1.93;;;26.70;75.10;;;;;;5014690;28;20455;-93
2022/05/15 10:10:17;;;;;;;2.17;1.70;;;26.80;73.80;;;;;;5014108;28;20427;-90
2022/05/15 10:12:46;;;;;;;2.40;2.20;;;26.80;72.60;;;;;;4996927;28;20449;-90
2022/05/15 10:15:12;;;;;;;2.90;1.73;;;26.80;72.80;;;;;;4994003;28;20511;-92
2022/05/15 10:17:55;;;;;;;2.30;2.10;;;26.80;72.50;;;;;;4996401;28;20442;-90
2022/05/15 10:20:34;;;;;;;1.90;1.80;;;26.90;72.30;;;;;;4994486;28;20484;-91
2022/05/15 10:23:04;;;;;;;2.30;1.73;;;26.80;71.30;;;;;;4994399;28;20567;-91
2022/05/15 10:25:29;;;;;;;3.63;1.77;;;26.90;70.30;;;;;;4997801;28;20409;-90
2022/05/15 10:28:04;;;;;;;2.10;1.83;;;26.90;69.80;;;;;;4978813;28;20533;-94
2022/05/15 10:30:35;;;;;;;3.00;1.70;;;26.90;71.10;;;;;;4978261;28;20176;-93
2022/05/15 10:33:15;;;;;;;1.73;1.60;;;27.00;70.40;;;;;;4979264;28;20553;-90
2022/05/15 10:36:19;;;;;;;2.90;2.23;;;27.00;68.60;;;;;;4982941;28;20409;-90
2022/05/15 10:38:48;;;;;;;2.43;2.23;;;26.90;72.10;;;;;;4973613;28;20454;-93
2022/05/15 10:41:19;;;;;;;2.37;2.00;;;27.00;72.70;;;;;;4975601;28;20835;-93
2022/05/15 10:43:50;;;;;;;4.43;2.03;;;27.00;71.10;;;;;;4974516;28;20419;-90
2022/05/15 10:46:34;;;;;;;2.43;2.30;;;27.00;72.10;;;;;;4974367;28;20497;-91
2022/05/15 10:49:39;;;;;;;2.90;1.70;;;27.00;74.80;;;;;;4973976;28;20422;-93
2022/05/15 10:52:39;;;;;;;2.13;1.93;;;27.10;75.30;;;;;;4976601;28;20457;-90
2022/05/15 10:58:32;;;;;;;2.43;2.23;;;27.10;75.10;;;;;;4980951;28;20449;-93
2022/05/15 11:01:17;;;;;;;3.97;2.10;;;27.20;71.40;;;;;;4982005;28;20418;-90
2022/05/15 11:03:55;;;;;;;2.90;1.60;;;27.20;70.40;;;;;;4982075;28;20468;-90
2022/05/15 11:07:07;;;;;;;2.97;1.60;;;27.20;70.40;;;;;;4983517;28;20437;-90
2022/05/15 11:09:45;;;;;;;2.20;1.90;;;27.20;71.50;;;;;;4957342;29;20406;-93
2022/05/15 11:12:45;;;;;;;1.90;1.80;;;27.30;69.00;;;;;;4977501;28;20470;-90
2022/05/15 11:15:11;;;;;;;2.47;1.90;;;27.30;71.80;;;;;;4977211;28;20561;-93
2022/05/15 11:18:11;;;;;;;2.00;1.80;;;27.30;72.30;;;;;;4978373;28;20481;-93
2022/05/15 11:20:45;;;;;;;3.33;2.43;;;27.20;70.40;;;;;;4978512;28;20185;-89
2022/05/15 11:23:36;;;;;;;1.90;1.70;;;27.20;70.50;;;;;;4979262;28;21015;-93
2022/05/15 11:26:28;;;;;;;2.87;2.47;;;27.30;74.30;;;;;;4981389;28;20802;-93
2022/05/15 11:28:57;;;;;;;2.30;2.07;;;27.20;70.50;;;;;;4997624;28;20786;-91
2022/05/15 11:31:30;;;;;;;4.77;2.00;;;27.30;69.70;;;;;;4998134;28;20433;-90
2022/05/15 11:34:02;;;;;;;3.27;2.80;;;27.30;70.10;;;;;;4999719;28;20394;-90
2022/05/15 11:36:33;;;;;;;3.23;1.97;;;27.30;70.20;;;;;;4999109;28;20444;-90
2022/05/15 11:39:00;;;;;;;2.77;2.53;;;27.40;68.50;;;;;;4998866;28;20465;-92
2022/05/15 11:41:35;;;;;;;3.27;2.40;;;27.40;70.10;;;;;;4999862;28;20460;-93
2022/05/15 11:44:03;;;;;;;2.13;1.90;;;27.40;70.00;;;;;;5005053;28;20421;-90
2022/05/15 11:46:47;;;;;;;2.47;2.20;;;27.50;69.10;;;;;;5003542;28;20461;-93
2022/05/15 11:49:33;;;;;;;2.10;1.90;;;27.50;68.10;;;;;;4995895;28;21018;-90
2022/05/15 11:52:14;;;;;;;2.23;1.83;;;27.50;68.80;;;;;;4994349;28;20464;-93
2022/05/15 11:54:42;;;;;;;4.07;2.20;;;27.50;67.00;;;;;;4993873;28;20774;-91
2022/05/15 11:57:30;;;;;;;3.43;2.43;;;27.50;67.60;;;;;;4994892;28;20453;-91
2022/05/15 11:59:59;;;;;;;2.20;2.00;;;27.50;68.70;;;;;;4994616;28;20575;-93
2022/05/15 12:02:31;;;;;;;2.43;2.23;;;27.50;69.40;;;;;;4994539;28;20938;-93
2022/05/15 12:05:01;;;;;;;2.60;2.40;;;27.50;68.50;;;;;;4995642;28;20537;-90
2022/05/15 12:07:57;;;;;;;3.20;2.90;;;27.50;68.30;;;;;;4995737;28;20457;-93
2022/05/15 12:10:35;;;;;;;2.53;2.33;;;27.50;67.90;;;;;;4996082;28;20544;-93
2022/05/15 12:13:27;;;;;;;2.87;2.30;;;27.60;68.30;;;;;;4995996;28;20453;-93
2022/05/15 12:16:23;;;;;;;2.77;2.27;;;27.60;68.90;;;;;;4997275;28;20529;-91
2022/05/15 12:19:12;;;;;;;2.60;2.40;;;27.60;68.40;;;;;;4996218;28;20414;-90
2022/05/15 12:21:45;;;;;;;2.00;1.90;;;27.60;67.90;;;;;;4982607;28;20484;-89
2022/05/15 12:24:30;;;;;;;3.03;2.57;;;27.70;68.80;;;;;;4998912;28;20822;-93
2022/05/15 12:27:24;;;;;;;3.10;2.47;;;27.70;67.60;;;;;;4995278;28;20449;-91
2022/05/15 12:30:18;;;;;;;2.50;2.30;;;27.70;67.90;;;;;;4997386;28;20413;-92
2022/05/15 12:33:04;;;;;;;3.30;2.40;;;27.70;69.00;;;;;;4996683;28;20445;-90
2022/05/15 12:35:30;;;;;;;2.13;2.03;;;27.70;69.60;;;;;;4996683;28;20418;-93
2022/05/15 12:38:06;;;;;;;2.33;2.23;;;27.70;69.80;;;;;;4998960;28;20452;-90
2022/05/15 12:40:38;;;;;;;3.40;2.47;;;27.80;71.60;;;;;;4998507;28;20242;-90
2022/05/15 12:43:28;;;;;;;2.70;2.50;;;27.80;70.40;;;;;;4995889;28;20549;-93
2022/05/15 12:45:54;;;;;;;2.80;2.57;;;27.80;71.60;;;;;;4998143;28;20489;-90
2022/05/15 12:48:21;;;;;;;2.70;2.50;;;27.70;68.80;;;;;;4998275;28;20433;-90
2022/05/15 12:51:09;;;;;;;2.97;2.67;;;27.70;69.00;;;;;;4997243;28;20418;-93
2022/05/15 12:53:44;;;;;;;3.17;2.63;;;27.70;69.70;;;;;;4997283;28;20454;-94
2022/05/15 12:56:25;;;;;;;2.83;2.50;;;27.70;70.40;;;;;;4998777;28;20775;-92
2022/05/15 12:58:57;;;;;;;2.40;2.20;;;27.70;72.30;;;;;;4996320;28;20500;-91
2022/05/15 13:01:30;;;;;;;2.40;2.20;;;27.70;71.70;;;;;;4998521;28;20449;-90
2022/05/15 13:04:01;;;;;;;2.40;2.20;;;27.80;70.50;;;;;;5002845;28;20421;-89
2022/05/15 13:06:32;;;;;;;4.50;2.70;;;27.80;69.10;;;;;;4994299;28;21037;-92
2022/05/15 13:09:01;;;;;;;3.13;2.83;;;27.90;68.00;;;;;;4994337;28;20836;-90
2022/05/15 13:11:50;;;;;;;3.13;2.30;;;27.90;67.90;;;;;;4994336;28;20834;-93
2022/05/15 13:14:31;;;;;;;4.30;2.50;;;28.00;69.00;;;;;;4995387;28;20422;-91
2022/05/15 13:16:58;;;;;;;3.40;2.97;;;28.00;68.60;;;;;;4997361;28;20459;-93
2022/05/15 13:19:34;;;;;;;3.13;2.90;;;28.00;67.50;;;;;;4996226;28;20441;-89
2022/05/15 13:22:02;;;;;;;2.93;2.73;;;28.00;67.30;;;;;;4996473;28;20491;-89